Time;durP1;ratioP1;P1;durP2;ratioP2;P2;SDS_P1;SDS_P2;PMS_P1;PMS_P2;Temp;Humidity;BMP_temperature;BMP_pressure;BME280_temperature;BME280_humidity;BME280_pressure;Samples;Min_cycle;Max_cycle;Signal;HPM_P1;HPM_P2
2023/12/31 00:02:11;;;;;;;3.13;1.25;;;10.10;99.90;;;;;;5031874;28;20024;-54
2023/12/31 00:04:37;;;;;;;1.95;1.30;;;10.10;99.90;;;;;;5032357;28;20017;-51
2023/12/31 00:07:03;;;;;;;3.03;1.00;;;10.20;99.90;;;;;;5032432;28;20017;-54
2023/12/31 00:09:28;;;;;;;3.03;1.23;;;10.10;99.90;;;;;;5032111;28;20378;-53
2023/12/31 00:11:54;;;;;;;1.38;0.60;;;10.10;99.90;;;;;;5032259;28;20099;-56
2023/12/31 00:14:20;;;;;;;1.52;0.80;;;10.00;99.90;;;;;;5033013;28;20024;-53
2023/12/31 00:16:45;;;;;;;2.47;0.98;;;10.00;99.90;;;;;;5035748;28;20092;-51
2023/12/31 00:19:11;;;;;;;3.22;1.20;;;10.00;99.90;;;;;;5032416;28;20018;-54
2023/12/31 00:21:42;;;;;;;3.85;1.00;;;10.00;99.90;;;;;;5032009;28;20521;-54
2023/12/31 00:24:07;;;;;;;1.20;0.77;;;10.10;99.90;;;;;;5044860;28;20029;-54
2023/12/31 00:26:33;;;;;;;3.20;0.55;;;10.10;99.90;;;;;;5035309;28;20033;-53
2023/12/31 00:28:58;;;;;;;1.48;0.75;;;10.00;99.90;;;;;;5028533;28;20032;-53
2023/12/31 00:31:24;;;;;;;0.82;0.77;;;10.10;99.90;;;;;;5035870;28;20029;-54
2023/12/31 00:33:54;;;;;;;1.00;0.70;;;10.00;99.90;;;;;;5035481;28;20029;-54
2023/12/31 00:36:20;;;;;;;3.03;0.85;;;10.10;99.90;;;;;;5035174;28;20437;-56
2023/12/31 00:38:48;;;;;;;0.60;0.60;;;10.00;99.90;;;;;;5035082;28;20272;-55
2023/12/31 00:41:14;;;;;;;3.00;0.60;;;10.00;99.90;;;;;;5034159;28;20411;-54
2023/12/31 00:43:39;;;;;;;0.77;0.68;;;10.00;99.90;;;;;;5035331;28;20060;-53
2023/12/31 00:46:05;;;;;;;1.17;0.77;;;10.00;99.90;;;;;;5034749;28;20024;-53
2023/12/31 00:48:31;;;;;;;3.55;1.00;;;10.00;99.90;;;;;;5035146;28;20545;-54
2023/12/31 00:50:56;;;;;;;1.30;1.10;;;10.00;99.90;;;;;;5034191;28;20025;-54
2023/12/31 00:53:22;;;;;;;2.13;0.73;;;10.10;99.90;;;;;;5035345;28;20033;-52
2023/12/31 00:55:48;;;;;;;1.35;0.73;;;10.10;99.90;;;;;;5034204;28;20505;-54
2023/12/31 00:58:13;;;;;;;3.50;0.82;;;10.10;99.90;;;;;;5035170;28;20363;-54
2023/12/31 01:00:39;;;;;;;1.80;0.68;;;10.00;99.90;;;;;;5034824;28;20033;-54
2023/12/31 01:03:05;;;;;;;0.60;0.55;;;10.00;99.90;;;;;;5034719;28;20037;-56
2023/12/31 01:05:30;;;;;;;2.63;0.95;;;10.00;99.90;;;;;;5033694;28;20017;-53
2023/12/31 01:07:56;;;;;;;1.42;0.65;;;10.00;99.90;;;;;;5035026;28;20108;-53
2023/12/31 01:10:22;;;;;;;1.23;0.75;;;9.90;99.90;;;;;;5035248;28;20084;-53
2023/12/31 01:12:47;;;;;;;1.70;0.57;;;9.90;99.90;;;;;;5035398;28;20100;-54
2023/12/31 01:15:13;;;;;;;2.00;0.70;;;9.90;99.90;;;;;;5034640;28;20044;-49
2023/12/31 01:17:39;;;;;;;2.17;0.60;;;9.90;99.90;;;;;;5035037;28;20045;-53
2023/12/31 01:20:05;;;;;;;0.95;0.45;;;9.80;99.90;;;;;;5034765;28;20022;-54
2023/12/31 01:22:31;;;;;;;1.05;0.57;;;9.90;99.90;;;;;;5034846;28;20486;-53
2023/12/31 01:24:56;;;;;;;4.40;0.90;;;9.90;99.90;;;;;;5034674;28;20088;-54
2023/12/31 01:27:22;;;;;;;1.70;0.70;;;9.90;99.90;;;;;;5034843;28;20031;-56
2023/12/31 01:29:48;;;;;;;1.30;0.90;;;9.90;99.90;;;;;;5033032;28;20022;-53
2023/12/31 01:32:13;;;;;;;2.58;0.98;;;9.90;99.90;;;;;;5034291;28;20022;-52
2023/12/31 01:34:39;;;;;;;4.43;1.20;;;9.90;99.90;;;;;;5032753;28;20017;-54
2023/12/31 01:37:05;;;;;;;4.65;1.27;;;9.90;99.90;;;;;;5034697;28;20478;-53
2023/12/31 01:39:31;;;;;;;1.92;1.67;;;9.90;99.90;;;;;;5034912;28;20025;-54
2023/12/31 01:41:57;;;;;;;3.42;1.63;;;9.90;99.90;;;;;;5033795;28;20501;-54
2023/12/31 01:44:22;;;;;;;5.13;2.53;;;9.90;99.90;;;;;;5033350;28;20076;-54
2023/12/31 01:46:48;;;;;;;4.45;2.67;;;9.90;99.90;;;;;;5034227;28;20033;-57
2023/12/31 01:49:14;;;;;;;7.32;2.00;;;9.90;99.90;;;;;;5034340;28;20436;-54
2023/12/31 01:51:41;;;;;;;3.08;1.67;;;10.00;99.90;;;;;;5034471;28;20482;-53
2023/12/31 01:54:07;;;;;;;4.35;2.30;;;10.00;99.90;;;;;;5034086;28;20080;-54
2023/12/31 01:56:36;;;;;;;4.32;2.08;;;9.90;99.90;;;;;;5034377;28;20464;-54
2023/12/31 01:59:03;;;;;;;1.90;1.10;;;10.00;99.90;;;;;;5034226;28;20105;-51
2023/12/31 02:01:32;;;;;;;3.10;1.10;;;10.00;99.90;;;;;;5033192;28;20029;-52
2023/12/31 02:03:57;;;;;;;1.63;0.80;;;10.10;99.90;;;;;;5030262;28;20029;-54
2023/12/31 02:06:23;;;;;;;0.85;0.60;;;10.10;99.90;;;;;;5031823;28;20023;-54
2023/12/31 02:08:49;;;;;;;2.60;0.82;;;10.10;99.90;;;;;;5033747;28;20029;-54
2023/12/31 02:11:16;;;;;;;1.35;0.50;;;10.10;99.90;;;;;;5031411;28;20482;-54
2023/12/31 02:13:41;;;;;;;0.88;0.70;;;10.10;99.90;;;;;;5029136;28;20478;-51
2023/12/31 02:16:14;;;;;;;1.27;0.70;;;10.10;99.90;;;;;;5032024;28;20101;-55
2023/12/31 02:18:40;;;;;;;1.30;0.70;;;10.10;99.90;;;;;;5030202;28;20494;-53
2023/12/31 02:21:06;;;;;;;0.93;0.82;;;10.10;99.90;;;;;;5020803;28;20036;-54
2023/12/31 02:23:32;;;;;;;0.90;0.30;;;10.10;99.90;;;;;;5033002;28;20144;-54
2023/12/31 02:26:07;;;;;;;0.45;0.45;;;10.10;99.90;;;;;;5029635;28;20049;-54
2023/12/31 02:28:33;;;;;;;1.02;0.60;;;10.20;99.90;;;;;;5031826;28;20381;-42
2023/12/31 02:30:59;;;;;;;2.65;0.90;;;10.20;99.90;;;;;;5033264;28;20100;-42
2023/12/31 02:33:25;;;;;;;2.65;0.80;;;10.10;99.90;;;;;;5033175;28;20029;-40
2023/12/31 02:35:50;;;;;;;2.15;0.65;;;10.20;99.90;;;;;;5028785;28;20060;-39
2023/12/31 02:38:16;;;;;;;1.42;0.60;;;10.10;99.90;;;;;;5033196;28;20033;-43
2023/12/31 02:40:42;;;;;;;1.45;0.50;;;10.10;99.90;;;;;;5033325;28;20025;-41
2023/12/31 02:43:07;;;;;;;1.23;0.70;;;10.10;99.90;;;;;;5033123;28;20481;-39
2023/12/31 02:45:33;;;;;;;0.85;0.63;;;10.10;99.90;;;;;;5027999;28;20105;-41
2023/12/31 02:47:58;;;;;;;3.90;0.70;;;10.10;99.90;;;;;;5032973;28;20018;-40
2023/12/31 02:50:25;;;;;;;1.48;0.47;;;10.00;99.90;;;;;;5032335;28;20045;-40
2023/12/31 02:52:53;;;;;;;0.90;0.57;;;10.00;99.90;;;;;;5031840;28;20032;-40
2023/12/31 02:55:22;;;;;;;;;;;10.00;99.90;;;;;;5032526;28;20036;-53
2023/12/31 02:57:47;;;;;;;1.45;0.68;;;10.00;99.90;;;;;;5028502;28;19920;-52
2023/12/31 03:00:13;;;;;;;3.28;0.85;;;10.00;99.90;;;;;;5028895;28;20382;-54
2023/12/31 03:02:40;;;;;;;1.98;0.60;;;10.00;99.90;;;;;;5031752;28;20110;-55
2023/12/31 03:05:10;;;;;;;0.40;0.40;;;9.90;99.90;;;;;;5032833;28;20470;-54
2023/12/31 03:07:36;;;;;;;1.05;0.50;;;9.90;99.90;;;;;;5032738;28;20021;-54
2023/12/31 03:10:02;;;;;;;1.73;1.10;;;9.90;99.90;;;;;;5031407;28;20443;-53
2023/12/31 03:12:28;;;;;;;1.30;0.73;;;9.90;99.90;;;;;;5032629;28;20108;-54
2023/12/31 03:14:55;;;;;;;1.05;0.50;;;9.90;99.90;;;;;;5031791;28;20160;-52
2023/12/31 03:17:22;;;;;;;0.73;0.40;;;9.90;99.90;;;;;;5032174;28;20876;-55
2023/12/31 03:19:48;;;;;;;1.05;0.47;;;9.90;99.90;;;;;;5031744;28;20486;-55
2023/12/31 03:22:14;;;;;;;0.40;0.30;;;10.00;99.90;;;;;;5032594;28;20021;-53
2023/12/31 03:24:42;;;;;;;2.08;0.40;;;9.90;99.90;;;;;;5032094;28;20032;-53
2023/12/31 03:27:09;;;;;;;;;;;10.00;99.90;;;;;;5030695;28;20024;-54
2023/12/31 03:29:35;;;;;;;0.83;0.73;;;10.10;99.90;;;;;;5032663;28;20421;-51
2023/12/31 03:32:01;;;;;;;3.80;0.63;;;10.10;99.90;;;;;;5032373;28;20108;-54
2023/12/31 03:34:27;;;;;;;0.60;0.50;;;10.10;99.90;;;;;;5031974;28;20028;-53
2023/12/31 03:36:52;;;;;;;4.07;0.50;;;10.10;99.90;;;;;;5027480;28;20374;-52
2023/12/31 03:39:18;;;;;;;1.75;0.60;;;10.10;99.90;;;;;;5031899;28;20036;-55
2023/12/31 03:41:43;;;;;;;0.65;0.57;;;10.10;99.90;;;;;;5032499;28;20040;-53
2023/12/31 03:44:09;;;;;;;2.05;0.43;;;10.00;99.90;;;;;;5032101;28;20029;-41
2023/12/31 03:46:35;;;;;;;1.67;0.75;;;10.00;99.90;;;;;;5031915;28;20467;-41
2023/12/31 03:49:01;;;;;;;0.80;0.80;;;10.00;99.90;;;;;;5021052;28;20026;-44
2023/12/31 03:51:26;;;;;;;3.50;1.23;;;9.90;99.90;;;;;;5031989;28;20036;-45
2023/12/31 03:53:52;;;;;;;2.70;0.73;;;9.90;99.90;;;;;;5031189;28;20033;-45
2023/12/31 03:56:18;;;;;;;0.65;0.50;;;10.00;99.90;;;;;;5031530;28;20100;-43
2023/12/31 03:58:43;;;;;;;0.88;0.88;;;10.00;99.90;;;;;;5029110;28;20541;-54
2023/12/31 04:01:09;;;;;;;1.55;0.93;;;9.90;99.90;;;;;;5026493;28;20030;-51
2023/12/31 04:03:34;;;;;;;3.28;0.80;;;10.00;99.90;;;;;;5030275;28;20474;-53
2023/12/31 04:06:00;;;;;;;0.77;0.60;;;10.00;99.90;;;;;;5034955;28;20103;-59
2023/12/31 04:08:26;;;;;;;1.42;0.60;;;9.90;99.90;;;;;;5035409;28;20025;-53
2023/12/31 04:10:51;;;;;;;1.75;0.60;;;9.90;99.90;;;;;;5035620;28;20100;-53
2023/12/31 04:13:18;;;;;;;0.63;0.63;;;10.00;99.90;;;;;;5035832;28;20029;-54
2023/12/31 04:15:44;;;;;;;1.15;0.90;;;10.00;99.90;;;;;;5035677;28;20076;-54
2023/12/31 04:18:10;;;;;;;1.95;0.70;;;10.00;99.90;;;;;;5034799;28;20502;-40
2023/12/31 04:20:35;;;;;;;0.65;0.40;;;9.90;99.90;;;;;;5036509;28;20394;-41
2023/12/31 04:23:01;;;;;;;1.75;0.77;;;9.90;99.90;;;;;;5035225;28;20493;-40
2023/12/31 04:25:26;;;;;;;1.05;0.73;;;9.90;99.90;;;;;;5035873;28;20057;-40
2023/12/31 04:27:52;;;;;;;1.75;0.50;;;9.90;99.90;;;;;;5035516;28;20486;-45
2023/12/31 04:30:20;;;;;;;0.90;0.60;;;9.80;99.90;;;;;;5034772;28;20029;-40
2023/12/31 04:32:46;;;;;;;0.98;0.70;;;9.80;99.90;;;;;;5035239;28;20538;-41
2023/12/31 04:35:12;;;;;;;3.80;0.80;;;9.80;99.90;;;;;;5035589;28;20029;-51
2023/12/31 04:37:37;;;;;;;2.42;1.15;;;9.80;99.90;;;;;;5035579;28;20514;-43
2023/12/31 04:40:07;;;;;;;1.45;0.77;;;9.80;99.90;;;;;;5035113;28;20037;-45
2023/12/31 04:42:33;;;;;;;1.90;1.10;;;9.90;99.90;;;;;;5031103;28;20021;-45
2023/12/31 04:45:04;;;;;;;0.63;0.63;;;9.90;99.90;;;;;;5035465;28;20017;-42
2023/12/31 04:47:30;;;;;;;2.35;0.80;;;9.90;99.90;;;;;;5035373;28;20146;-42
2023/12/31 04:49:55;;;;;;;1.98;0.95;;;10.00;99.90;;;;;;5033753;28;20126;-40
2023/12/31 04:52:21;;;;;;;3.60;0.90;;;10.00;99.90;;;;;;5035048;28;20119;-42
2023/12/31 04:54:46;;;;;;;0.63;0.63;;;10.10;99.90;;;;;;5035245;28;20064;-41
2023/12/31 04:57:12;;;;;;;2.20;0.50;;;10.10;99.90;;;;;;5046313;28;20032;-39
2023/12/31 04:59:39;;;;;;;0.90;0.80;;;10.10;99.90;;;;;;5037910;28;20049;-41
2023/12/31 05:02:05;;;;;;;1.03;0.87;;;10.10;99.90;;;;;;5034638;28;20033;-43
2023/12/31 05:04:31;;;;;;;3.13;0.88;;;10.10;99.90;;;;;;5034761;28;20390;-43
2023/12/31 05:06:58;;;;;;;0.95;0.70;;;10.10;99.90;;;;;;5034849;28;20025;-53
2023/12/31 05:09:24;;;;;;;0.75;0.68;;;10.10;99.90;;;;;;5034729;28;20026;-56
2023/12/31 05:11:50;;;;;;;2.72;0.52;;;10.10;99.90;;;;;;5034319;28;20108;-51
2023/12/31 05:14:15;;;;;;;2.13;0.70;;;10.20;99.90;;;;;;5034541;28;20052;-54
2023/12/31 05:16:41;;;;;;;0.63;0.63;;;10.20;99.90;;;;;;5031530;28;20061;-52
2023/12/31 05:19:07;;;;;;;5.03;0.90;;;10.10;99.90;;;;;;5032363;28;20041;-53
2023/12/31 05:21:34;;;;;;;0.82;0.82;;;10.20;99.90;;;;;;5034718;28;20406;-53
2023/12/31 05:24:00;;;;;;;0.75;0.65;;;10.20;99.90;;;;;;5034711;28;20033;-52
2023/12/31 05:26:25;;;;;;;3.95;1.25;;;10.20;99.90;;;;;;5034677;28;20474;-54
2023/12/31 05:28:52;;;;;;;1.00;0.70;;;10.20;99.90;;;;;;5034211;28;20356;-53
2023/12/31 05:31:18;;;;;;;1.90;0.60;;;10.10;99.90;;;;;;5034189;28;20367;-49
2023/12/31 05:33:44;;;;;;;18.70;2.47;;;10.30;99.90;;;;;;5034261;28;20112;-53
2023/12/31 05:36:11;;;;;;;3.58;0.95;;;10.30;99.90;;;;;;5034558;28;20049;-52
2023/12/31 05:38:36;;;;;;;1.38;0.88;;;10.30;99.90;;;;;;5034186;28;20678;-52
2023/12/31 05:41:02;;;;;;;1.42;0.80;;;10.20;99.90;;;;;;5034399;28;20120;-54
2023/12/31 05:43:28;;;;;;;1.40;0.80;;;10.30;99.90;;;;;;5034343;28;20536;-54
2023/12/31 05:45:53;;;;;;;1.08;0.75;;;10.30;99.90;;;;;;5034113;28;20033;-52
2023/12/31 05:48:19;;;;;;;1.25;0.98;;;10.20;99.90;;;;;;5034309;28;20104;-51
2023/12/31 05:50:46;;;;;;;0.75;0.68;;;10.20;99.90;;;;;;5034244;28;20374;-56
2023/12/31 05:53:12;;;;;;;1.90;0.90;;;10.30;99.90;;;;;;5039266;28;20112;-54
2023/12/31 05:55:38;;;;;;;1.52;0.90;;;10.40;99.90;;;;;;5033694;28;20418;-54
2023/12/31 05:58:03;;;;;;;0.88;0.70;;;10.30;99.90;;;;;;5034153;28;20132;-54
2023/12/31 06:00:29;;;;;;;1.23;1.02;;;10.30;99.90;;;;;;5033436;28;20031;-51
2023/12/31 06:02:55;;;;;;;1.65;0.80;;;10.40;99.90;;;;;;5033734;28;20071;-43
2023/12/31 06:05:21;;;;;;;1.10;1.00;;;10.40;99.90;;;;;;5033453;28;20025;-45
2023/12/31 06:07:47;;;;;;;0.82;0.63;;;10.40;99.90;;;;;;5033819;28;20036;-42
2023/12/31 06:10:13;;;;;;;2.40;0.93;;;10.30;99.90;;;;;;5033966;28;20079;-44
2023/12/31 06:12:38;;;;;;;1.10;0.90;;;10.30;99.90;;;;;;5027558;28;20025;-41
2023/12/31 06:15:06;;;;;;;2.22;0.90;;;10.30;99.90;;;;;;5024096;28;20053;-41
2023/12/31 06:17:36;;;;;;;1.17;0.90;;;10.30;99.90;;;;;;5033799;28;20569;-39
2023/12/31 06:20:02;;;;;;;1.13;1.00;;;10.20;99.90;;;;;;5033781;28;20517;-40
2023/12/31 06:22:28;;;;;;;2.45;0.95;;;10.20;99.90;;;;;;5033454;28;20034;-43
2023/12/31 06:24:54;;;;;;;1.42;1.00;;;10.20;99.90;;;;;;5033588;28;20025;-43
2023/12/31 06:27:19;;;;;;;1.10;1.00;;;10.20;99.90;;;;;;5031209;28;20026;-40
2023/12/31 06:29:45;;;;;;;1.13;1.00;;;10.20;99.90;;;;;;5033399;28;20170;-50
2023/12/31 06:32:11;;;;;;;1.70;1.20;;;10.30;99.90;;;;;;5028862;28;20025;-54
2023/12/31 06:34:36;;;;;;;1.67;0.80;;;10.30;99.90;;;;;;5032249;28;20068;-55
2023/12/31 06:37:02;;;;;;;1.63;1.27;;;10.30;99.90;;;;;;5030591;28;20635;-57
2023/12/31 06:39:29;;;;;;;3.55;1.40;;;10.30;99.90;;;;;;5031728;28;20029;-52
2023/12/31 06:41:55;;;;;;;3.10;1.27;;;10.40;99.90;;;;;;5031701;28;20433;-54
2023/12/31 06:44:21;;;;;;;1.27;0.88;;;10.30;99.90;;;;;;5046045;28;20029;-55
2023/12/31 06:46:47;;;;;;;1.73;1.00;;;10.30;99.90;;;;;;5034536;28;20413;-54
2023/12/31 06:49:12;;;;;;;2.08;1.20;;;10.30;99.90;;;;;;5033190;28;20018;-54
2023/12/31 06:51:39;;;;;;;1.58;1.13;;;10.30;99.90;;;;;;5030849;28;20017;-53
2023/12/31 06:54:05;;;;;;;1.75;1.30;;;10.20;99.90;;;;;;5033273;28;20478;-52
2023/12/31 06:56:30;;;;;;;4.38;0.93;;;10.20;99.90;;;;;;5032985;28;20038;-54
2023/12/31 06:58:56;;;;;;;1.95;0.93;;;10.20;99.90;;;;;;5033137;28;20367;-59
2023/12/31 07:01:22;;;;;;;1.38;1.27;;;10.20;99.90;;;;;;5031366;28;20030;-54
2023/12/31 07:03:48;;;;;;;3.13;0.90;;;10.20;99.90;;;;;;5032242;28;20087;-52
2023/12/31 07:06:13;;;;;;;2.03;1.15;;;10.10;99.90;;;;;;5024026;28;20028;-51
2023/12/31 07:08:39;;;;;;;2.22;1.08;;;10.20;99.90;;;;;;5031570;28;20092;-54
2023/12/31 07:11:05;;;;;;;1.05;0.98;;;10.20;99.90;;;;;;5032709;28;20029;-58
2023/12/31 07:13:30;;;;;;;6.72;1.25;;;10.20;99.90;;;;;;5033071;28;20462;-53
2023/12/31 07:16:00;;;;;;;0.93;0.80;;;10.30;99.90;;;;;;5030626;28;20045;-54
2023/12/31 07:18:25;;;;;;;1.02;0.93;;;10.30;99.90;;;;;;5031425;28;20041;-49
2023/12/31 07:20:54;;;;;;;1.38;1.00;;;10.30;99.90;;;;;;5032241;28;20094;-54
2023/12/31 07:23:20;;;;;;;3.30;1.35;;;10.20;99.90;;;;;;5032105;28;20059;-54
2023/12/31 07:25:46;;;;;;;1.15;0.90;;;10.20;99.90;;;;;;5032885;28;20101;-53
2023/12/31 07:28:11;;;;;;;1.65;1.27;;;10.30;99.90;;;;;;5033077;28;20104;-53
2023/12/31 07:30:39;;;;;;;1.23;1.13;;;10.40;99.90;;;;;;5030062;28;20018;-55
2023/12/31 07:33:05;;;;;;;1.08;0.90;;;10.40;99.90;;;;;;5031837;28;20026;-54
2023/12/31 07:35:34;;;;;;;1.38;1.10;;;10.40;99.90;;;;;;5029404;28;20030;-53
2023/12/31 07:38:01;;;;;;;1.10;0.98;;;10.40;99.90;;;;;;5031407;28;20021;-53
2023/12/31 07:40:26;;;;;;;2.05;1.40;;;10.40;99.90;;;;;;5030349;28;20108;-53
2023/12/31 07:42:52;;;;;;;2.83;1.20;;;10.30;99.90;;;;;;5031844;28;20472;-54
2023/12/31 07:45:18;;;;;;;2.47;1.17;;;10.30;99.90;;;;;;5031763;28;20037;-52
2023/12/31 07:47:43;;;;;;;3.25;1.02;;;10.30;99.90;;;;;;5031807;28;20105;-54
2023/12/31 07:50:09;;;;;;;1.83;1.50;;;10.30;99.90;;;;;;5031845;28;20036;-56
2023/12/31 07:52:35;;;;;;;1.80;1.15;;;10.20;99.90;;;;;;5032343;28;20025;-54
2023/12/31 07:55:03;;;;;;;1.63;1.52;;;10.20;99.90;;;;;;5032105;28;20036;-54
2023/12/31 07:57:28;;;;;;;1.13;1.02;;;10.20;99.90;;;;;;5032202;28;20083;-55
2023/12/31 07:59:54;;;;;;;1.75;1.27;;;10.30;99.90;;;;;;5032168;28;20413;-55
2023/12/31 08:02:20;;;;;;;1.30;1.20;;;10.20;99.90;;;;;;5031483;28;20080;-54
2023/12/31 08:04:46;;;;;;;4.60;1.08;;;10.30;99.90;;;;;;5032136;28;20062;-55
2023/12/31 08:07:11;;;;;;;1.33;1.15;;;10.20;99.90;;;;;;5031821;28;20441;-60
2023/12/31 08:09:37;;;;;;;2.17;1.25;;;10.20;99.90;;;;;;5031914;28;20026;-52
2023/12/31 08:12:03;;;;;;;1.13;1.00;;;10.20;99.90;;;;;;5032186;28;20499;-53
2023/12/31 08:14:29;;;;;;;1.13;1.02;;;10.30;99.90;;;;;;5031330;28;20466;-41
2023/12/31 08:16:55;;;;;;;2.70;1.17;;;10.20;99.90;;;;;;5029966;28;20456;-42
2023/12/31 08:19:20;;;;;;;1.35;1.00;;;10.20;99.90;;;;;;5031633;28;20030;-41
2023/12/31 08:21:47;;;;;;;2.00;1.23;;;10.30;99.90;;;;;;5032249;28;20022;-41
2023/12/31 08:24:19;;;;;;;1.65;1.27;;;10.30;99.90;;;;;;5031038;28;20032;-40
2023/12/31 08:26:45;;;;;;;1.10;1.00;;;10.30;99.90;;;;;;5031817;28;20542;-50
2023/12/31 08:29:11;;;;;;;4.38;1.13;;;10.30;99.90;;;;;;5032314;28;20029;-42
2023/12/31 08:31:37;;;;;;;1.15;1.05;;;10.30;99.90;;;;;;5031357;28;20403;-40
2023/12/31 08:34:03;;;;;;;1.40;1.08;;;10.30;99.90;;;;;;5032012;28;20493;-40
2023/12/31 08:36:29;;;;;;;0.85;0.82;;;10.30;99.90;;;;;;5030364;28;20060;-39
2023/12/31 08:38:55;;;;;;;1.80;1.17;;;10.30;99.90;;;;;;5032120;28;20083;-40
2023/12/31 08:41:20;;;;;;;2.95;1.20;;;10.30;99.90;;;;;;5031392;28;20442;-42
2023/12/31 08:43:47;;;;;;;1.05;0.93;;;10.30;99.90;;;;;;5031578;28;20025;-39
2023/12/31 08:46:12;;;;;;;3.08;1.20;;;10.40;99.90;;;;;;5031031;28;20026;-40
2023/12/31 08:48:38;;;;;;;3.67;1.10;;;10.40;99.90;;;;;;5031836;28;20481;-39
2023/12/31 08:51:04;;;;;;;1.02;0.93;;;10.40;99.90;;;;;;5033199;28;20018;-40
2023/12/31 08:53:30;;;;;;;1.65;1.30;;;10.30;99.90;;;;;;5035381;28;20029;-40
2023/12/31 08:55:55;;;;;;;1.00;0.90;;;10.30;99.90;;;;;;5034048;28;20109;-40
2023/12/31 08:58:21;;;;;;;2.65;1.50;;;10.30;99.90;;;;;;5035483;28;20072;-39
2023/12/31 09:00:47;;;;;;;1.48;0.98;;;10.30;99.90;;;;;;5034457;28;20024;-43
2023/12/31 09:03:12;;;;;;;1.05;1.00;;;10.30;99.90;;;;;;5035084;28;20021;-39
2023/12/31 09:05:38;;;;;;;1.67;1.27;;;10.20;99.90;;;;;;5034112;28;20477;-41
2023/12/31 09:08:04;;;;;;;2.67;1.08;;;10.20;99.90;;;;;;5034999;28;20022;-39
2023/12/31 09:10:30;;;;;;;1.40;0.95;;;10.10;99.90;;;;;;5031017;28;20084;-39
2023/12/31 09:12:56;;;;;;;2.03;1.38;;;9.90;99.90;;;;;;5022813;28;20037;-41
2023/12/31 09:15:22;;;;;;;4.18;1.10;;;9.90;99.90;;;;;;5033777;28;20036;-41
2023/12/31 09:17:47;;;;;;;1.10;1.00;;;9.90;99.90;;;;;;5034853;28;20464;-38
2023/12/31 09:20:13;;;;;;;1.95;0.95;;;9.80;99.90;;;;;;5034196;28;20021;-40
2023/12/31 09:25:24;;;;;;;1.67;0.60;;;9.40;99.90;;;;;;5031109;28;20064;-37
2023/12/31 09:27:49;;;;;;;1.90;0.32;;;9.20;99.90;;;;;;5034801;28;20029;-52
2023/12/31 09:30:15;;;;;;;1.45;0.30;;;9.10;99.90;;;;;;5035278;28;20026;-50
2023/12/31 09:32:43;;;;;;;0.95;0.30;;;8.90;99.90;;;;;;5034100;28;20224;-52
2023/12/31 09:35:09;;;;;;;0.50;0.40;;;8.80;99.90;;;;;;5033640;28;20470;-47
2023/12/31 09:37:35;;;;;;;0.52;0.30;;;8.80;99.90;;;;;;5034536;28;20036;-50
2023/12/31 09:40:01;;;;;;;0.30;0.20;;;8.70;99.90;;;;;;5033374;28;20026;-51
2023/12/31 09:42:51;;;;;;;0.20;0.20;;;8.70;99.90;;;;;;5033340;28;20029;-55
2023/12/31 09:45:21;;;;;;;1.27;0.38;;;8.60;99.90;;;;;;5033443;28;20026;-49
2023/12/31 09:47:48;;;;;;;0.70;0.45;;;8.70;99.90;;;;;;5027980;28;20386;-45
2023/12/31 09:50:24;;;;;;;0.50;0.38;;;8.60;99.90;;;;;;5029756;28;20478;-50
2023/12/31 09:52:50;;;;;;;0.55;0.40;;;8.60;99.90;;;;;;5034397;28;20028;-45
2023/12/31 09:55:20;;;;;;;0.52;0.30;;;8.60;99.90;;;;;;5033861;28;20116;-46
2023/12/31 09:57:50;;;;;;;0.22;0.20;;;8.50;99.90;;;;;;5033807;28;20057;-49
2023/12/31 10:00:16;;;;;;;0.57;0.38;;;8.50;99.90;;;;;;5032484;28;20108;-39
2023/12/31 10:02:45;;;;;;;1.35;0.30;;;8.40;99.90;;;;;;5028701;28;20509;-37
2023/12/31 10:05:12;;;;;;;2.15;0.32;;;8.40;99.90;;;;;;5015694;28;20034;-37
2023/12/31 10:07:38;;;;;;;4.28;0.32;;;8.40;99.90;;;;;;5029392;28;20017;-39
2023/12/31 10:10:05;;;;;;;0.20;0.20;;;8.50;99.90;;;;;;5032082;28;20600;-37
2023/12/31 10:12:32;;;;;;;4.90;1.27;;;8.50;99.90;;;;;;5032496;28;20018;-39
2023/12/31 10:14:57;;;;;;;0.30;0.30;;;8.50;99.90;;;;;;5031839;28;20539;-38
2023/12/31 10:17:25;;;;;;;0.93;0.40;;;8.60;99.90;;;;;;5033424;28;20041;-38
2023/12/31 10:19:51;;;;;;;1.08;0.43;;;8.60;99.90;;;;;;5033652;28;20026;-39
2023/12/31 10:22:17;;;;;;;1.10;0.70;;;8.70;99.90;;;;;;5032387;28;20048;-41
2023/12/31 10:24:43;;;;;;;1.77;0.60;;;8.80;99.90;;;;;;5033275;28;20096;-37
2023/12/31 10:27:11;;;;;;;0.75;0.60;;;8.80;99.90;;;;;;5030580;28;20036;-41
2023/12/31 10:29:37;;;;;;;0.70;0.70;;;8.90;99.90;;;;;;5031407;28;20492;-38
2023/12/31 10:32:03;;;;;;;0.65;0.52;;;9.00;99.90;;;;;;5033184;28;20021;-38
2023/12/31 10:34:29;;;;;;;0.60;0.60;;;9.10;99.90;;;;;;5024074;28;20513;-44
2023/12/31 10:37:06;;;;;;;0.85;0.32;;;9.00;99.90;;;;;;5026034;28;20026;-39
2023/12/31 10:39:34;;;;;;;2.63;1.00;;;9.10;99.90;;;;;;5028962;28;20108;-40
2023/12/31 10:42:04;;;;;;;1.58;0.98;;;9.10;99.90;;;;;;5019899;28;20530;-42
2023/12/31 10:44:34;;;;;;;0.68;0.60;;;9.20;99.90;;;;;;5020357;28;20111;-41
2023/12/31 10:47:04;;;;;;;3.15;0.82;;;9.30;99.90;;;;;;5033135;28;20021;-40
2023/12/31 10:49:32;;;;;;;0.95;0.93;;;9.30;99.90;;;;;;5031990;28;20573;-54
2023/12/31 10:52:04;;;;;;;0.80;0.80;;;9.30;99.90;;;;;;5028727;28;20163;-53
2023/12/31 10:54:42;;;;;;;1.05;0.60;;;9.30;99.90;;;;;;5033658;28;20474;-54
2023/12/31 10:57:09;;;;;;;2.10;0.80;;;9.30;99.90;;;;;;5033323;28;20473;-53
2023/12/31 10:59:38;;;;;;;2.97;0.80;;;9.30;99.90;;;;;;5032208;28;20537;-52
2023/12/31 11:02:04;;;;;;;0.95;0.57;;;9.30;99.90;;;;;;5031604;28;20478;-52
2023/12/31 11:04:31;;;;;;;0.85;0.55;;;9.30;99.90;;;;;;5033215;28;20060;-51
2023/12/31 11:07:00;;;;;;;4.75;0.57;;;9.30;99.90;;;;;;5027970;28;20025;-53
2023/12/31 11:09:27;;;;;;;0.65;0.50;;;9.30;99.90;;;;;;5032964;28;20025;-53
2023/12/31 11:11:54;;;;;;;2.25;0.50;;;9.30;99.90;;;;;;5032350;28;20024;-51
2023/12/31 11:14:28;;;;;;;2.08;0.70;;;9.40;99.90;;;;;;5030778;28;20044;-54
2023/12/31 11:17:12;;;;;;;1.38;0.50;;;9.30;99.90;;;;;;5029367;28;20076;-52
2023/12/31 11:19:50;;;;;;;2.75;0.30;;;9.30;99.90;;;;;;5013722;28;20058;-52
2023/12/31 11:22:53;;;;;;;2.50;0.63;;;9.30;99.90;;;;;;5030164;28;20556;-49
2023/12/31 11:25:22;;;;;;;0.47;0.35;;;9.20;99.90;;;;;;5043975;28;20541;-54
2023/12/31 11:27:53;;;;;;;0.05;0.05;;;9.10;99.90;;;;;;5032394;28;20087;-54
2023/12/31 11:30:43;;;;;;;0.32;0.28;;;8.90;99.90;;;;;;5030523;28;20083;-47
2023/12/31 11:33:09;;;;;;;0.13;0.13;;;8.80;99.90;;;;;;5045747;28;20041;-53
2023/12/31 11:35:45;;;;;;;0.40;0.25;;;8.70;99.90;;;;;;5031357;28;20486;-52
2023/12/31 11:38:11;;;;;;;0.52;0.25;;;8.60;99.90;;;;;;5030474;28;20030;-52
2023/12/31 11:40:37;;;;;;;0.40;0.40;;;8.60;99.90;;;;;;5031207;28;20386;-51
2023/12/31 11:43:16;;;;;;;0.45;0.22;;;8.60;99.90;;;;;;5030456;28;20032;-50
2023/12/31 11:45:48;;;;;;;6.00;0.85;;;8.60;99.90;;;;;;5028782;28;20498;-53
2023/12/31 11:48:17;;;;;;;0.50;0.30;;;8.50;99.90;;;;;;5023628;28;20451;-52
2023/12/31 11:50:43;;;;;;;5.43;1.17;;;8.50;99.90;;;;;;5027191;28;20029;-50
2023/12/31 11:53:12;;;;;;;4.40;0.68;;;8.60;99.90;;;;;;5030447;28;20028;-51
2023/12/31 11:55:37;;;;;;;0.40;0.40;;;8.60;99.90;;;;;;5027444;28;20039;-51
2023/12/31 11:58:05;;;;;;;3.33;0.30;;;8.60;99.90;;;;;;5031094;28;20109;-52
2023/12/31 12:00:31;;;;;;;2.33;0.60;;;8.60;99.90;;;;;;5028184;28;20068;-52
2023/12/31 12:02:56;;;;;;;3.40;0.43;;;8.70;99.90;;;;;;5027324;28;20057;-52
2023/12/31 12:05:22;;;;;;;3.20;0.73;;;8.70;99.90;;;;;;5030490;28;20033;-52
2023/12/31 12:07:48;;;;;;;3.25;0.93;;;8.80;99.90;;;;;;5027511;28;20436;-53
2023/12/31 12:10:14;;;;;;;1.75;1.02;;;8.80;99.90;;;;;;5026446;28;20572;-52
2023/12/31 12:12:41;;;;;;;3.85;0.98;;;8.80;99.90;;;;;;5031683;28;20457;-50
2023/12/31 12:15:07;;;;;;;3.72;1.05;;;8.90;99.90;;;;;;5031628;28;20057;-52
2023/12/31 12:17:33;;;;;;;1.38;0.93;;;8.90;99.90;;;;;;5028197;28;20449;-49
2023/12/31 12:19:59;;;;;;;5.85;1.10;;;8.90;99.90;;;;;;5030598;28;20026;-51
2023/12/31 12:22:26;;;;;;;4.57;0.95;;;9.00;99.90;;;;;;5027056;28;20108;-53
2023/12/31 12:24:51;;;;;;;3.88;0.60;;;9.10;99.90;;;;;;5032269;28;20022;-50
2023/12/31 12:27:17;;;;;;;7.85;0.68;;;9.10;99.90;;;;;;5034123;28;20045;-52
2023/12/31 12:29:43;;;;;;;6.05;1.10;;;9.20;99.90;;;;;;5029253;28;20014;-52
2023/12/31 12:32:16;;;;;;;5.22;0.60;;;9.20;99.90;;;;;;5034013;28;20379;-53
2023/12/31 12:34:43;;;;;;;7.95;1.38;;;9.40;99.90;;;;;;5035698;28;20370;-46
2023/12/31 12:37:10;;;;;;;3.85;0.68;;;9.30;99.90;;;;;;5035624;28;20478;-50
2023/12/31 12:39:35;;;;;;;3.30;0.68;;;9.40;99.90;;;;;;5035178;28;20470;-52
2023/12/31 12:42:01;;;;;;;2.33;0.75;;;9.40;99.90;;;;;;5034740;28;20028;-52
2023/12/31 12:44:27;;;;;;;7.70;0.68;;;9.50;99.90;;;;;;5033090;28;20037;-51
2023/12/31 12:46:53;;;;;;;7.18;0.70;;;9.60;99.90;;;;;;5035189;28;20462;-53
2023/12/31 12:49:22;;;;;;;3.78;1.27;;;9.60;99.90;;;;;;5032638;28;20026;-53
2023/12/31 12:51:48;;;;;;;5.05;0.93;;;9.60;99.90;;;;;;5034707;28;20493;-53